Aurora, OR

6:56 AM PDT on September 17, 2014 (GMT -0700)
Aurora State | Change Station
CLOSE
Current Station
Airport
Location: Aurora,
Elevation: 197 ft
Nearby Weather Stations

Elev 197 ft 45.25 °N, 122.77 °W | Updated 1 hour ago

Mostly Cloudy
Mostly Cloudy
60 °F
Feels Like 60 °F
N
5
Wind Variable Wind from North

Today
High -- | Low -- °F
--% Chance of Precip.
Yesterday
High -- | Low -- °F
Precip. -- in
6:52 AM 7:17 PM
Waning Crescent, 36% visible
Pressure 29.75 in
Visibility 10.0 miles
Clouds Clear
Dew Point 54 °F
Humidity 80%
Rainfall 0.00 in
Snow Depth 0 in , 0 in , 0 in
UV 0 out of 12
Pollen 2.40 out of 12
Air Quality Not available.
Flu Activity Not available.
METAR KUAO 171253Z AUTO 36004KT 10SM CLR 16/12 A2975 RMK AO2 SLP073 T01560122

More Conditions Fewer Conditions

Pressure 29.75 in
Visibility 10.0 miles
Clouds Clear
Dew Point 54 °F
Humidity 80%
Rainfall 0.00 in
Snow Depth 0 in , 0 in , 0 in
UV 0 out of 12
Pollen 2.40 out of 12
Air Quality Not available.
Flu Activity Not available.
METAR KUAO 171253Z AUTO 36004KT 10SM CLR 16/12 A2975 RMK AO2 SLP073 T01560122

More Conditions Fewer Conditions

10-Day Weather Forecast

Almanac

Astronomy

Sep. 17, 2014 Rise Set
Actual Time 6:52 AM PDT 7:17 PM PDT
Civil Twilight 6:22 AM PDT 7:47 PM PDT
Nautical Twilight 5:47 AM PDT 8:22 PM PDT
Astronomical Twilight 5:11 AM PDT 8:58 PM PDT
Moon 12:45 AM PDT 3:42 PM PDT
Length of Visible Light 13h 24m
Length of Day
12h 25m
Tomorrow will be 3m 8s shorter.
Waning Crescent, 36% of the Moon is Illuminated
Today
Waning Crescent
Sep 24
New
Oct 1
First Quarter
Oct 8
Full
Oct 15
Last Quarter

Today's Extremes

State Highs State Lows

Community

WunderPhotos

Upload Photos

1,754,029 photos uploaded!

WunderBlogs® & News

Nearby

Snow Depth

Station Depth Elevation
Gerber Reservoir 0 in 4850 ft
New Crescent Lake 0 in 4800 ft
Tipton 0 in 5150 ft
Irish Taylor 0 in 5500 ft
Silver Creek 0 in 5720 ft

Earthquake Activity

City Distance Mag. Time & Date
Morton, Washington 77 miles 3.0 5:43 AM PDT
2014-09-16
Minimum magnitude displayed is 2.5.

Coastal Water Temperatures

Place Temperature
No Stations Reporting

Nearby Weather Stations